sensor_id;sensor_type;location;lat;lon;timestamp;pressure;altitude;pressure_sealevel;temperature;humidity
11856;BME280;5987;53.140;8.904;2023-11-21T00:02:11;101224.63;;;7.71;100.00
11856;BME280;5987;53.140;8.904;2023-11-21T00:05:15;101228.94;;;7.74;100.00
11856;BME280;5987;53.140;8.904;2023-11-21T00:08:20;101228.09;;;7.73;100.00
11856;BME280;5987;53.140;8.904;2023-11-21T00:11:24;101236.00;;;7.69;100.00
11856;BME280;5987;53.140;8.904;2023-11-21T00:14:28;101244.69;;;7.71;100.00
11856;BME280;5987;53.140;8.904;2023-11-21T00:17:32;101249.09;;;7.67;100.00
11856;BME280;5987;53.140;8.904;2023-11-21T00:20:36;101250.72;;;7.75;100.00
11856;BME280;5987;53.140;8.904;2023-11-21T00:23:41;101249.84;;;7.74;100.00
11856;BME280;5987;53.140;8.904;2023-11-21T00:26:45;101258.63;;;7.71;100.00
11856;BME280;5987;53.140;8.904;2023-11-21T00:29:51;101266.50;;;7.68;100.00
11856;BME280;5987;53.140;8.904;2023-11-21T00:32:54;101260.41;;;7.69;100.00
11856;BME280;5987;53.140;8.904;2023-11-21T00:35:58;101265.66;;;7.66;100.00
11856;BME280;5987;53.140;8.904;2023-11-21T00:39:04;101264.91;;;7.61;100.00
11856;BME280;5987;53.140;8.904;2023-11-21T00:42:08;101273.63;;;7.60;100.00
11856;BME280;5987;53.140;8.904;2023-11-21T00:45:13;101272.72;;;7.63;100.00
11856;BME280;5987;53.140;8.904;2023-11-21T00:48:17;101279.66;;;7.62;100.00
11856;BME280;5987;53.140;8.904;2023-11-21T00:51:21;101280.53;;;7.64;100.00
11856;BME280;5987;53.140;8.904;2023-11-21T00:54:27;101291.03;;;7.61;100.00
11856;BME280;5987;53.140;8.904;2023-11-21T00:57:33;101292.72;;;7.62;100.00
11856;BME280;5987;53.140;8.904;2023-11-21T01:00:37;101309.38;;;7.56;100.00
11856;BME280;5987;53.140;8.904;2023-11-21T01:03:42;101314.59;;;7.60;100.00
11856;BME280;5987;53.140;8.904;2023-11-21T01:06:48;101320.59;;;7.63;100.00
11856;BME280;5987;53.140;8.904;2023-11-21T01:09:53;101328.47;;;7.62;100.00
11856;BME280;5987;53.140;8.904;2023-11-21T01:12:58;101328.34;;;7.69;100.00
11856;BME280;5987;53.140;8.904;2023-11-21T01:16:02;101334.59;;;7.59;100.00
11856;BME280;5987;53.140;8.904;2023-11-21T01:19:06;101338.91;;;7.63;100.00
11856;BME280;5987;53.140;8.904;2023-11-21T01:22:10;101345.00;;;7.62;100.00
11856;BME280;5987;53.140;8.904;2023-11-21T01:25:15;101355.47;;;7.64;100.00
11856;BME280;5987;53.140;8.904;2023-11-21T01:28:19;101364.94;;;7.69;100.00
11856;BME280;5987;53.140;8.904;2023-11-21T01:31:23;101364.09;;;7.67;100.00
11856;BME280;5987;53.140;8.904;2023-11-21T01:34:29;101372.81;;;7.68;100.00
11856;BME280;5987;53.140;8.904;2023-11-21T01:37:33;101372.78;;;7.69;100.00
11856;BME280;5987;53.140;8.904;2023-11-21T01:40:39;101386.75;;;7.68;100.00
11856;BME280;5987;53.140;8.904;2023-11-21T01:43:42;101385.88;;;7.69;100.00
11856;BME280;5987;53.140;8.904;2023-11-21T01:46:47;101393.59;;;7.76;100.00
11856;BME280;5987;53.140;8.904;2023-11-21T01:49:51;101392.75;;;7.75;100.00
11856;BME280;5987;53.140;8.904;2023-11-21T01:52:56;101401.41;;;7.77;100.00
11856;BME280;5987;53.140;8.904;2023-11-21T01:56:02;101407.50;;;7.78;100.00
11856;BME280;5987;53.140;8.904;2023-11-21T01:59:06;101404.84;;;7.81;100.00
11856;BME280;5987;53.140;8.904;2023-11-21T02:02:10;101408.25;;;7.84;100.00
11856;BME280;5987;53.140;8.904;2023-11-21T02:05:16;101415.97;;;7.94;100.00
11856;BME280;5987;53.140;8.904;2023-11-21T02:08:20;101416.00;;;7.92;100.00
11856;BME280;5987;53.140;8.904;2023-11-21T02:11:25;101422.91;;;7.96;100.00
11856;BME280;5987;53.140;8.904;2023-11-21T02:14:30;101431.63;;;7.95;100.00
11856;BME280;5987;53.140;8.904;2023-11-21T02:17:35;101435.91;;;7.99;100.00
11856;BME280;5987;53.140;8.904;2023-11-21T02:20:39;101450.75;;;7.97;100.00
11856;BME280;5987;53.140;8.904;2023-11-21T02:23:45;101453.38;;;7.97;100.00
11856;BME280;5987;53.140;8.904;2023-11-21T02:26:49;101455.16;;;7.95;100.00
11856;BME280;5987;53.140;8.904;2023-11-21T02:29:54;101454.31;;;7.93;100.00
11856;BME280;5987;53.140;8.904;2023-11-21T02:32:58;101459.53;;;7.93;100.00
11856;BME280;5987;53.140;8.904;2023-11-21T02:36:03;101456.13;;;7.89;100.00
11856;BME280;5987;53.140;8.904;2023-11-21T02:39:09;101462.25;;;7.87;100.00
11856;BME280;5987;53.140;8.904;2023-11-21T02:42:13;101458.81;;;7.85;100.00
11856;BME280;5987;53.140;8.904;2023-11-21T02:45:18;101459.59;;;7.90;100.00
11856;BME280;5987;53.140;8.904;2023-11-21T02:48:23;101465.72;;;7.87;100.00
11856;BME280;5987;53.140;8.904;2023-11-21T02:51:28;101459.63;;;7.87;100.00
11856;BME280;5987;53.140;8.904;2023-11-21T02:54:33;101461.47;;;7.80;100.00
11856;BME280;5987;53.140;8.904;2023-11-21T02:57:38;101459.75;;;7.81;100.00
11856;BME280;5987;53.140;8.904;2023-11-21T03:00:43;101464.97;;;7.81;100.00
11856;BME280;5987;53.140;8.904;2023-11-21T03:03:47;101463.44;;;7.66;100.00
11856;BME280;5987;53.140;8.904;2023-11-21T03:06:54;101473.88;;;7.67;100.00
11856;BME280;5987;53.140;8.904;2023-11-21T03:09:59;101477.34;;;7.69;100.00
11856;BME280;5987;53.140;8.904;2023-11-21T03:13:03;101472.19;;;7.63;100.00
11856;BME280;5987;53.140;8.904;2023-11-21T03:16:08;101470.44;;;7.62;100.00
11856;BME280;5987;53.140;8.904;2023-11-21T03:19:11;101482.63;;;7.63;100.00
11856;BME280;5987;53.140;8.904;2023-11-21T03:22:17;101480.91;;;7.62;100.00
11856;BME280;5987;53.140;8.904;2023-11-21T03:25:23;101490.50;;;7.62;100.00
11856;BME280;5987;53.140;8.904;2023-11-21T03:28:27;101488.81;;;7.58;100.00
11856;BME280;5987;53.140;8.904;2023-11-21T03:31:32;101492.34;;;7.55;100.00
11856;BME280;5987;53.140;8.904;2023-11-21T03:34:53;101494.19;;;7.48;100.00
11856;BME280;5987;53.140;8.904;2023-11-21T03:37:57;101501.13;;;7.49;100.00
11856;BME280;5987;53.140;8.904;2023-11-21T03:41:03;101504.56;;;7.53;100.00
11856;BME280;5987;53.140;8.904;2023-11-21T03:44:06;101511.56;;;7.49;100.00
11856;BME280;5987;53.140;8.904;2023-11-21T03:47:10;101522.94;;;7.47;100.00
11856;BME280;5987;53.140;8.904;2023-11-21T03:50:14;101527.41;;;7.38;100.00
11856;BME280;5987;53.140;8.904;2023-11-21T03:53:18;101536.06;;;7.41;100.00
11856;BME280;5987;53.140;8.904;2023-11-21T03:56:23;101531.00;;;7.28;100.00
11856;BME280;5987;53.140;8.904;2023-11-21T03:59:26;101546.66;;;7.28;100.00
11856;BME280;5987;53.140;8.904;2023-11-21T04:02:30;101539.75;;;7.22;100.00
11856;BME280;5987;53.140;8.904;2023-11-21T04:05:35;101544.22;;;7.16;100.00
11856;BME280;5987;53.140;8.904;2023-11-21T04:08:39;101544.19;;;7.14;100.00
11856;BME280;5987;53.140;8.904;2023-11-21T04:11:44;101558.19;;;7.09;100.00
11856;BME280;5987;53.140;8.904;2023-11-21T04:14:48;101560.03;;;7.02;100.00
11856;BME280;5987;53.140;8.904;2023-11-21T04:17:54;101566.16;;;6.98;100.00
11856;BME280;5987;53.140;8.904;2023-11-21T04:20:59;101564.50;;;6.91;100.00
11856;BME280;5987;53.140;8.904;2023-11-21T04:24:03;101563.56;;;6.96;100.00
11856;BME280;5987;53.140;8.904;2023-11-21T04:27:08;101568.81;;;6.90;100.00
11856;BME280;5987;53.140;8.904;2023-11-21T04:30:13;101568.78;;;6.93;100.00
11856;BME280;5987;53.140;8.904;2023-11-21T04:33:17;101565.28;;;6.97;100.00
11856;BME280;5987;53.140;8.904;2023-11-21T04:36:21;101560.13;;;6.91;100.00
11856;BME280;5987;53.140;8.904;2023-11-21T04:39:25;101557.59;;;6.85;100.00
11856;BME280;5987;53.140;8.904;2023-11-21T04:42:30;101558.47;;;6.84;100.00
11856;BME280;5987;53.140;8.904;2023-11-21T04:45:34;101563.75;;;6.76;100.00
11856;BME280;5987;53.140;8.904;2023-11-21T04:48:38;101563.78;;;6.72;100.00
11856;BME280;5987;53.140;8.904;2023-11-21T04:51:42;101561.19;;;6.72;100.00
11856;BME280;5987;53.140;8.904;2023-11-21T04:54:46;101571.59;;;6.73;100.00
11856;BME280;5987;53.140;8.904;2023-11-21T04:57:51;101578.59;;;6.69;100.00
11856;BME280;5987;53.140;8.904;2023-11-21T05:00:55;101574.28;;;6.62;100.00
11856;BME280;5987;53.140;8.904;2023-11-21T05:03:59;101568.31;;;6.49;100.00
11856;BME280;5987;53.140;8.904;2023-11-21T05:07:03;101558.75;;;6.47;100.00
11856;BME280;5987;53.140;8.904;2023-11-21T05:10:08;101554.41;;;6.50;100.00
11856;BME280;5987;53.140;8.904;2023-11-21T05:13:15;101527.47;;;6.47;100.00
11856;BME280;5987;53.140;8.904;2023-11-21T05:16:20;101524.00;;;6.45;100.00
11856;BME280;5987;53.140;8.904;2023-11-21T05:19:24;101510.97;;;6.46;100.00
11856;BME280;5987;53.140;8.904;2023-11-21T05:22:29;101506.59;;;6.47;100.00
11856;BME280;5987;53.140;8.904;2023-11-21T05:25:34;101498.00;;;6.34;100.00
11856;BME280;5987;53.140;8.904;2023-11-21T05:28:58;101490.25;;;6.29;100.00
11856;BME280;5987;53.140;8.904;2023-11-21T05:32:02;101489.41;;;6.24;100.00
11856;BME280;5987;53.140;8.904;2023-11-21T05:35:07;101478.06;;;6.28;100.00
11856;BME280;5987;53.140;8.904;2023-11-21T05:38:14;101480.72;;;6.24;100.00
11856;BME280;5987;53.140;8.904;2023-11-21T05:41:18;101488.53;;;6.25;100.00
11856;BME280;5987;53.140;8.904;2023-11-21T05:44:24;101482.47;;;6.20;100.00
11856;BME280;5987;53.140;8.904;2023-11-21T05:47:28;101484.22;;;6.20;100.00
11856;BME280;5987;53.140;8.904;2023-11-21T05:50:32;101483.47;;;6.07;100.00
11856;BME280;5987;53.140;8.904;2023-11-21T05:53:36;101482.53;;;6.14;100.00
11856;BME280;5987;53.140;8.904;2023-11-21T05:56:40;101487.78;;;6.11;100.00
11856;BME280;5987;53.140;8.904;2023-11-21T05:59:45;101491.28;;;6.08;100.00
11856;BME280;5987;53.140;8.904;2023-11-21T06:02:49;101495.66;;;6.03;100.00
11856;BME280;5987;53.140;8.904;2023-11-21T06:05:55;101500.78;;;6.14;100.00
11856;BME280;5987;53.140;8.904;2023-11-21T06:08:59;101503.44;;;6.11;100.00
11856;BME280;5987;53.140;8.904;2023-11-21T06:12:04;101504.28;;;6.10;100.00
11856;BME280;5987;53.140;8.904;2023-11-21T06:15:12;101510.47;;;5.99;100.00
11856;BME280;5987;53.140;8.904;2023-11-21T06:18:17;101512.19;;;5.94;100.00
11856;BME280;5987;53.140;8.904;2023-11-21T06:21:22;101514.78;;;5.99;100.00
11856;BME280;5987;53.140;8.904;2023-11-21T06:24:26;101521.72;;;6.01;100.00
11856;BME280;5987;53.140;8.904;2023-11-21T06:27:31;101526.97;;;5.95;100.00
11856;BME280;5987;53.140;8.904;2023-11-21T06:30:36;101533.91;;;5.96;100.00
11856;BME280;5987;53.140;8.904;2023-11-21T06:33:40;101536.59;;;5.84;100.00
11856;BME280;5987;53.140;8.904;2023-11-21T06:36:44;101546.09;;;5.90;100.00
11856;BME280;5987;53.140;8.904;2023-11-21T06:39:48;101551.34;;;5.82;100.00
11856;BME280;5987;53.140;8.904;2023-11-21T06:42:52;101559.16;;;5.88;100.00
11856;BME280;5987;53.140;8.904;2023-11-21T06:45:57;101566.97;;;5.87;100.00
11856;BME280;5987;53.140;8.904;2023-11-21T06:49:01;101571.34;;;5.83;100.00
11856;BME280;5987;53.140;8.904;2023-11-21T06:52:05;101585.28;;;5.76;100.00
11856;BME280;5987;53.140;8.904;2023-11-21T06:55:11;101588.75;;;5.75;100.00
11856;BME280;5987;53.140;8.904;2023-11-21T06:58:15;101590.53;;;5.70;100.00
11856;BME280;5987;53.140;8.904;2023-11-21T07:01:20;101598.34;;;5.71;100.00
11856;BME280;5987;53.140;8.904;2023-11-21T07:04:25;101604.41;;;5.69;100.00
11856;BME280;5987;53.140;8.904;2023-11-21T07:07:29;101606.09;;;5.79;100.00
11856;BME280;5987;53.140;8.904;2023-11-21T07:10:32;101620.03;;;5.72;100.00
11856;BME280;5987;53.140;8.904;2023-11-21T07:13:37;101620.03;;;5.69;100.00
11856;BME280;5987;53.140;8.904;2023-11-21T07:16:42;101612.25;;;5.65;100.00
11856;BME280;5987;53.140;8.904;2023-11-21T07:19:46;101618.31;;;5.67;100.00
11856;BME280;5987;53.140;8.904;2023-11-21T07:22:49;101614.88;;;5.64;100.00
11856;BME280;5987;53.140;8.904;2023-11-21T07:25:53;101627.88;;;5.69;100.00
11856;BME280;5987;53.140;8.904;2023-11-21T07:28:57;101637.34;;;5.82;100.00
11856;BME280;5987;53.140;8.904;2023-11-21T07:32:03;101640.81;;;5.79;100.00
11856;BME280;5987;53.140;8.904;2023-11-21T07:35:08;101640.84;;;5.76;100.00
11856;BME280;5987;53.140;8.904;2023-11-21T07:38:12;101643.47;;;5.73;100.00
11856;BME280;5987;53.140;8.904;2023-11-21T07:41:16;101645.19;;;5.79;100.00
11856;BME280;5987;53.140;8.904;2023-11-21T07:44:32;101646.06;;;5.75;100.00
11856;BME280;5987;53.140;8.904;2023-11-21T07:47:37;101655.63;;;5.77;100.00
11856;BME280;5987;53.140;8.904;2023-11-21T07:50:42;101659.09;;;5.76;100.00
11856;BME280;5987;53.140;8.904;2023-11-21T07:53:45;101672.09;;;5.87;100.00
11856;BME280;5987;53.140;8.904;2023-11-21T07:56:49;101675.59;;;5.80;100.00
11856;BME280;5987;53.140;8.904;2023-11-21T07:59:53;101686.88;;;5.77;100.00
11856;BME280;5987;53.140;8.904;2023-11-21T08:02:58;101695.56;;;5.76;100.00
11856;BME280;5987;53.140;8.904;2023-11-21T08:06:03;101695.56;;;5.76;100.00
11856;BME280;5987;53.140;8.904;2023-11-21T08:09:08;101700.75;;;5.87;100.00
11856;BME280;5987;53.140;8.904;2023-11-21T08:12:12;101698.16;;;5.84;100.00
11856;BME280;5987;53.140;8.904;2023-11-21T08:15:17;101705.09;;;5.91;100.00
11856;BME280;5987;53.140;8.904;2023-11-21T08:18:22;101699.88;;;5.91;100.00
11856;BME280;5987;53.140;8.904;2023-11-21T08:21:26;101705.09;;;5.83;100.00
11856;BME280;5987;53.140;8.904;2023-11-21T08:24:31;101708.56;;;5.96;100.00
11856;BME280;5987;53.140;8.904;2023-11-21T08:27:35;101711.22;;;5.81;100.00
11856;BME280;5987;53.140;8.904;2023-11-21T08:30:39;101721.63;;;5.86;100.00
11856;BME280;5987;53.140;8.904;2023-11-21T08:33:45;101727.69;;;5.92;100.00
11856;BME280;5987;53.140;8.904;2023-11-21T08:36:49;101733.75;;;5.91;100.00
11856;BME280;5987;53.140;8.904;2023-11-21T08:39:53;101743.31;;;5.89;100.00
11856;BME280;5987;53.140;8.904;2023-11-21T08:42:57;101740.69;;;6.05;100.00
11856;BME280;5987;53.140;8.904;2023-11-21T08:46:01;101751.13;;;6.08;100.00
11856;BME280;5987;53.140;8.904;2023-11-21T08:49:07;101740.69;;;6.05;100.00
11856;BME280;5987;53.140;8.904;2023-11-21T08:52:10;101744.16;;;6.08;100.00
11856;BME280;5987;53.140;8.904;2023-11-21T08:55:14;101746.75;;;6.13;100.00
11856;BME280;5987;53.140;8.904;2023-11-21T08:58:18;101757.19;;;6.08;100.00
11856;BME280;5987;53.140;8.904;2023-11-21T09:01:22;101760.66;;;6.13;100.00
11856;BME280;5987;53.140;8.904;2023-11-21T09:04:28;101764.13;;;6.23;100.00
11856;BME280;5987;53.140;8.904;2023-11-21T09:07:32;101767.53;;;6.36;100.00
11856;BME280;5987;53.140;8.904;2023-11-21T09:10:36;101777.09;;;6.39;100.00
11856;BME280;5987;53.140;8.904;2023-11-21T09:13:41;101777.91;;;6.50;100.00
11856;BME280;5987;53.140;8.904;2023-11-21T09:16:45;101786.50;;;6.69;100.00
11856;BME280;5987;53.140;8.904;2023-11-21T09:19:50;101798.72;;;6.65;100.00
11856;BME280;5987;53.140;8.904;2023-11-21T09:22:54;101801.41;;;6.44;100.00
11856;BME280;5987;53.140;8.904;2023-11-21T09:25:58;101807.47;;;6.49;100.00
11856;BME280;5987;53.140;8.904;2023-11-21T09:29:03;101818.75;;;6.52;100.00
11856;BME280;5987;53.140;8.904;2023-11-21T09:32:07;101823.97;;;6.56;100.00
11856;BME280;5987;53.140;8.904;2023-11-21T09:35:14;101831.81;;;6.57;100.00
11856;BME280;5987;53.140;8.904;2023-11-21T09:38:20;101831.81;;;6.54;100.00
11856;BME280;5987;53.140;8.904;2023-11-21T09:41:34;101828.38;;;6.40;100.00
11856;BME280;5987;53.140;8.904;2023-11-21T09:44:53;101832.69;;;6.44;100.00
11856;BME280;5987;53.140;8.904;2023-11-21T09:48:01;101827.50;;;6.42;100.00
11856;BME280;5987;53.140;8.904;2023-11-21T09:51:09;101830.09;;;6.50;100.00
11856;BME280;5987;53.140;8.904;2023-11-21T09:54:16;101833.50;;;6.64;100.00
11856;BME280;5987;53.140;8.904;2023-11-21T09:57:23;101843.13;;;6.50;100.00
11856;BME280;5987;53.140;8.904;2023-11-21T10:00:27;101845.66;;;6.62;100.00
11856;BME280;5987;53.140;8.904;2023-11-21T10:03:36;101845.66;;;6.72;100.00
11856;BME280;5987;53.140;8.904;2023-11-21T10:06:42;101840.44;;;6.62;100.00
11856;BME280;5987;53.140;8.904;2023-11-21T10:09:48;101846.56;;;6.57;100.00
11856;BME280;5987;53.140;8.904;2023-11-21T10:12:57;101852.63;;;6.66;100.00
11856;BME280;5987;53.140;8.904;2023-11-21T10:16:05;101853.47;;;6.79;100.00
11856;BME280;5987;53.140;8.904;2023-11-21T10:19:11;101860.41;;;6.76;100.00
11856;BME280;5987;53.140;8.904;2023-11-21T10:22:17;101861.19;;;6.96;100.00
11856;BME280;5987;53.140;8.904;2023-11-21T10:25:22;101856.03;;;6.85;100.00
11856;BME280;5987;53.140;8.904;2023-11-21T10:28:25;101852.50;;;6.91;100.00
11856;BME280;5987;53.140;8.904;2023-11-21T10:31:30;101854.09;;;7.17;100.00
11856;BME280;5987;53.140;8.904;2023-11-21T10:34:34;101858.53;;;7.04;100.00
11856;BME280;5987;53.140;8.904;2023-11-21T10:37:40;101859.47;;;6.94;100.00
11856;BME280;5987;53.140;8.904;2023-11-21T10:40:45;101862.03;;;7.00;100.00
11856;BME280;5987;53.140;8.904;2023-11-21T10:43:53;101856.06;;;6.75;100.00
11856;BME280;5987;53.140;8.904;2023-11-21T10:47:00;101853.38;;;6.92;100.00
11856;BME280;5987;53.140;8.904;2023-11-21T10:50:06;101855.19;;;6.79;100.00
11856;BME280;5987;53.140;8.904;2023-11-21T10:53:14;101865.59;;;6.83;100.00
11856;BME280;5987;53.140;8.904;2023-11-21T10:56:22;101856.84;;;6.97;100.00
11856;BME280;5987;53.140;8.904;2023-11-21T10:59:30;101854.25;;;6.95;100.00
11856;BME280;5987;53.140;8.904;2023-11-21T11:02:35;101863.81;;;6.90;100.00
11856;BME280;5987;53.140;8.904;2023-11-21T11:05:43;101868.06;;;7.16;100.00
11856;BME280;5987;53.140;8.904;2023-11-21T11:08:56;101876.75;;;7.15;100.00
11856;BME280;5987;53.140;8.904;2023-11-21T11:12:02;101872.44;;;7.11;100.00
11856;BME280;5987;53.140;8.904;2023-11-21T11:15:23;101873.25;;;7.20;100.00
11856;BME280;5987;53.140;8.904;2023-11-21T11:18:27;101883.66;;;7.24;100.00
11856;BME280;5987;53.140;8.904;2023-11-21T11:21:46;101882.91;;;7.08;100.00
11856;BME280;5987;53.140;8.904;2023-11-21T11:25:18;101893.38;;;6.98;100.00
11856;BME280;5987;53.140;8.904;2023-11-21T11:28:36;101895.13;;;6.93;100.00
11856;BME280;5987;53.140;8.904;2023-11-21T11:31:58;101907.34;;;6.90;100.00
11856;BME280;5987;53.140;8.904;2023-11-21T11:35:19;101906.50;;;6.83;100.00
11856;BME280;5987;53.140;8.904;2023-11-21T11:38:31;101907.34;;;6.93;100.00
11856;BME280;5987;53.140;8.904;2023-11-21T11:41:37;101904.72;;;6.93;100.00
11856;BME280;5987;53.140;8.904;2023-11-21T11:44:50;101900.34;;;6.99;100.00
11856;BME280;5987;53.140;8.904;2023-11-21T11:48:00;101899.47;;;7.03;100.00
11856;BME280;5987;53.140;8.904;2023-11-21T11:51:10;101901.19;;;7.01;100.00
11856;BME280;5987;53.140;8.904;2023-11-21T11:54:34;101904.69;;;7.00;100.00
11856;BME280;5987;53.140;8.904;2023-11-21T11:57:41;101905.50;;;7.13;100.00
11856;BME280;5987;53.140;8.904;2023-11-21T12:00:45;101912.53;;;6.94;100.00
11856;BME280;5987;53.140;8.904;2023-11-21T12:04:23;101914.28;;;6.97;100.00
11856;BME280;5987;53.140;8.904;2023-11-21T12:07:47;101918.69;;;6.78;100.00
11856;BME280;5987;53.140;8.904;2023-11-21T12:10:51;101928.25;;;6.80;100.00
11856;BME280;5987;53.140;8.904;2023-11-21T12:13:58;101933.44;;;6.91;100.00
11856;BME280;5987;53.140;8.904;2023-11-21T12:17:03;101939.56;;;6.87;100.00
11856;BME280;5987;53.140;8.904;2023-11-21T12:20:08;101944.78;;;6.87;100.00
11856;BME280;5987;53.140;8.904;2023-11-21T12:23:17;101949.97;;;6.90;100.00
11856;BME280;5987;53.140;8.904;2023-11-21T12:26:23;101951.75;;;6.86;100.00
11856;BME280;5987;53.140;8.904;2023-11-21T12:29:28;101953.47;;;6.92;100.00
11856;BME280;5987;53.140;8.904;2023-11-21T12:32:33;101963.91;;;6.89;100.00
11856;BME280;5987;53.140;8.904;2023-11-21T12:35:38;101950.84;;;6.89;100.00
11856;BME280;5987;53.140;8.904;2023-11-21T12:38:42;101959.53;;;6.97;100.00
11856;BME280;5987;53.140;8.904;2023-11-21T12:41:46;101956.03;;;7.06;100.00
11856;BME280;5987;53.140;8.904;2023-11-21T12:45:18;101963.88;;;6.98;100.00
11856;BME280;5987;53.140;8.904;2023-11-21T12:48:23;101958.69;;;6.89;100.00
11856;BME280;5987;53.140;8.904;2023-11-21T12:51:27;101958.69;;;6.89;100.00
11856;BME280;5987;53.140;8.904;2023-11-21T12:54:34;101971.72;;;6.89;100.00
11856;BME280;5987;53.140;8.904;2023-11-21T12:57:42;101982.22;;;6.70;100.00
11856;BME280;5987;53.140;8.904;2023-11-21T13:00:49;101991.84;;;6.53;100.00
11856;BME280;5987;53.140;8.904;2023-11-21T13:03:54;101998.81;;;6.29;100.00
11856;BME280;5987;53.140;8.904;2023-11-21T13:07:03;102004.88;;;6.31;100.00
11856;BME280;5987;53.140;8.904;2023-11-21T13:10:11;102014.47;;;6.28;100.00
11856;BME280;5987;53.140;8.904;2023-11-21T13:13:15;102015.31;;;6.08;100.00
11856;BME280;5987;53.140;8.904;2023-11-21T13:16:27;102013.56;;;6.09;100.00
11856;BME280;5987;53.140;8.904;2023-11-21T13:19:31;102017.06;;;6.12;100.00
11856;BME280;5987;53.140;8.904;2023-11-21T13:22:35;102024.88;;;6.01;100.00
11856;BME280;5987;53.140;8.904;2023-11-21T13:25:39;102028.38;;;6.00;100.00
11856;BME280;5987;53.140;8.904;2023-11-21T13:28:44;102030.97;;;6.00;100.00
11856;BME280;5987;53.140;8.904;2023-11-21T13:31:51;102026.59;;;6.06;100.00
11856;BME280;5987;53.140;8.904;2023-11-21T13:34:55;102025.75;;;6.13;100.00
11856;BME280;5987;53.140;8.904;2023-11-21T13:38:06;102025.75;;;6.10;100.00
11856;BME280;5987;53.140;8.904;2023-11-21T13:41:11;102033.59;;;6.22;100.00
11856;BME280;5987;53.140;8.904;2023-11-21T13:44:16;102037.91;;;6.18;100.00
11856;BME280;5987;53.140;8.904;2023-11-21T13:47:31;102042.25;;;6.06;100.00
11856;BME280;5987;53.140;8.904;2023-11-21T13:50:36;102050.06;;;6.06;100.00
11856;BME280;5987;53.140;8.904;2023-11-21T13:53:41;102061.38;;;6.05;100.00
11856;BME280;5987;53.140;8.904;2023-11-21T13:56:46;102062.25;;;6.04;100.00
11856;BME280;5987;53.140;8.904;2023-11-21T13:59:52;102057.91;;;6.06;100.00
11856;BME280;5987;53.140;8.904;2023-11-21T14:02:57;102070.00;;;5.93;100.00
11856;BME280;5987;53.140;8.904;2023-11-21T14:06:03;102072.63;;;5.96;100.00
11856;BME280;5987;53.140;8.904;2023-11-21T14:09:17;102068.28;;;5.96;100.00
11856;BME280;5987;53.140;8.904;2023-11-21T14:12:25;102076.13;;;5.96;100.00
11856;BME280;5987;53.140;8.904;2023-11-21T14:15:28;102075.22;;;5.88;100.00
11856;BME280;5987;53.140;8.904;2023-11-21T14:18:35;102084.75;;;5.84;100.00
11856;BME280;5987;53.140;8.904;2023-11-21T14:21:52;102082.16;;;5.89;100.00
11856;BME280;5987;53.140;8.904;2023-11-21T14:24:56;102090.81;;;5.80;100.00
11856;BME280;5987;53.140;8.904;2023-11-21T14:28:02;102089.09;;;5.81;100.00
11856;BME280;5987;53.140;8.904;2023-11-21T14:31:07;102094.31;;;5.84;100.00
11856;BME280;5987;53.140;8.904;2023-11-21T14:34:16;102097.78;;;5.86;100.00
11856;BME280;5987;53.140;8.904;2023-11-21T14:37:24;102106.44;;;5.76;100.00
11856;BME280;5987;53.140;8.904;2023-11-21T14:40:27;102112.50;;;5.73;100.00
11856;BME280;5987;53.140;8.904;2023-11-21T14:43:35;102115.16;;;5.82;100.00
11856;BME280;5987;53.140;8.904;2023-11-21T14:46:40;102126.38;;;5.69;100.00
11856;BME280;5987;53.140;8.904;2023-11-21T14:49:49;102133.38;;;5.79;100.00
11856;BME280;5987;53.140;8.904;2023-11-21T14:52:56;102133.38;;;5.78;100.00
11856;BME280;5987;53.140;8.904;2023-11-21T14:56:02;102141.16;;;5.70;100.00
11856;BME280;5987;53.140;8.904;2023-11-21T14:59:06;102144.63;;;5.64;100.00
11856;BME280;5987;53.140;8.904;2023-11-21T15:02:15;102150.63;;;5.53;100.00
11856;BME280;5987;53.140;8.904;2023-11-21T15:05:22;102161.94;;;5.58;100.00
11856;BME280;5987;53.140;8.904;2023-11-21T15:08:26;102165.38;;;5.52;100.00
11856;BME280;5987;53.140;8.904;2023-11-21T15:11:34;102161.94;;;5.53;100.00
11856;BME280;5987;53.140;8.904;2023-11-21T15:14:36;102170.59;;;5.47;100.00
11856;BME280;5987;53.140;8.904;2023-11-21T15:17:41;102170.53;;;5.43;100.00
11856;BME280;5987;53.140;8.904;2023-11-21T15:20:48;102175.81;;;5.49;100.00
11856;BME280;5987;53.140;8.904;2023-11-21T15:23:51;102187.06;;;5.42;100.00
11856;BME280;5987;53.140;8.904;2023-11-21T15:26:55;102202.66;;;5.39;100.00
11856;BME280;5987;53.140;8.904;2023-11-21T15:29:59;102200.00;;;5.36;100.00
11856;BME280;5987;53.140;8.904;2023-11-21T15:33:03;102203.53;;;5.39;100.00
11856;BME280;5987;53.140;8.904;2023-11-21T15:36:09;102206.94;;;5.29;100.00
11856;BME280;5987;53.140;8.904;2023-11-21T15:39:13;102217.38;;;5.33;100.00
11856;BME280;5987;53.140;8.904;2023-11-21T15:42:18;102218.22;;;5.31;100.00
11856;BME280;5987;53.140;8.904;2023-11-21T15:45:22;102224.34;;;5.35;100.00
11856;BME280;5987;53.140;8.904;2023-11-21T15:48:28;102237.25;;;5.24;100.00
11856;BME280;5987;53.140;8.904;2023-11-21T15:51:34;102241.66;;;5.29;100.00
11856;BME280;5987;53.140;8.904;2023-11-21T15:54:39;102250.19;;;5.14;100.00
11856;BME280;5987;53.140;8.904;2023-11-21T15:57:43;102250.19;;;5.14;100.00
11856;BME280;5987;53.140;8.904;2023-11-21T16:00:48;102253.59;;;5.06;100.00
11856;BME280;5987;53.140;8.904;2023-11-21T16:03:52;102254.44;;;5.05;100.00
11856;BME280;5987;53.140;8.904;2023-11-21T16:06:58;102264.84;;;5.02;100.00
11856;BME280;5987;53.140;8.904;2023-11-21T16:10:03;102274.41;;;5.03;100.00
11856;BME280;5987;53.140;8.904;2023-11-21T16:13:09;102275.09;;;4.85;100.00
11856;BME280;5987;53.140;8.904;2023-11-21T16:16:12;102276.88;;;4.92;100.00
11856;BME280;5987;53.140;8.904;2023-11-21T16:19:19;102285.59;;;4.94;100.00
11856;BME280;5987;53.140;8.904;2023-11-21T16:22:24;102296.03;;;4.98;100.00
11856;BME280;5987;53.140;8.904;2023-11-21T16:25:30;102303.91;;;5.05;100.00